sensor_id;sensor_type;location;lat;lon;timestamp;P1;durP1;ratioP1;P2;durP2;ratioP2
26656;SDS011;14279;50.010;8.260;2023-02-28T00:02:18;3.03;;;2.10;;
26656;SDS011;14279;50.010;8.260;2023-02-28T00:04:44;2.30;;;2.13;;
26656;SDS011;14279;50.010;8.260;2023-02-28T00:07:09;2.50;;;2.30;;
26656;SDS011;14279;50.010;8.260;2023-02-28T00:09:34;2.00;;;1.90;;
26656;SDS011;14279;50.010;8.260;2023-02-28T00:11:59;2.60;;;2.40;;
26656;SDS011;14279;50.010;8.260;2023-02-28T00:14:25;2.13;;;2.03;;
26656;SDS011;14279;50.010;8.260;2023-02-28T00:16:50;2.50;;;2.30;;
26656;SDS011;14279;50.010;8.260;2023-02-28T00:19:15;2.53;;;2.33;;
26656;SDS011;14279;50.010;8.260;2023-02-28T00:21:40;4.63;;;3.00;;
26656;SDS011;14279;50.010;8.260;2023-02-28T00:24:06;9.33;;;2.90;;
26656;SDS011;14279;50.010;8.260;2023-02-28T00:26:31;2.70;;;2.50;;
26656;SDS011;14279;50.010;8.260;2023-02-28T00:28:57;4.40;;;2.43;;
26656;SDS011;14279;50.010;8.260;2023-02-28T00:31:22;2.80;;;2.60;;
26656;SDS011;14279;50.010;8.260;2023-02-28T00:33:47;3.63;;;2.60;;
26656;SDS011;14279;50.010;8.260;2023-02-28T00:36:13;6.90;;;2.47;;
26656;SDS011;14279;50.010;8.260;2023-02-28T00:38:38;2.70;;;2.50;;
26656;SDS011;14279;50.010;8.260;2023-02-28T00:41:05;8.43;;;3.07;;
26656;SDS011;14279;50.010;8.260;2023-02-28T00:43:32;3.80;;;2.40;;
26656;SDS011;14279;50.010;8.260;2023-02-28T00:45:59;2.90;;;2.60;;
26656;SDS011;14279;50.010;8.260;2023-02-28T00:48:24;3.00;;;2.70;;
26656;SDS011;14279;50.010;8.260;2023-02-28T00:50:50;2.93;;;2.73;;
26656;SDS011;14279;50.010;8.260;2023-02-28T00:53:15;3.27;;;2.97;;
26656;SDS011;14279;50.010;8.260;2023-02-28T00:55:40;3.33;;;2.90;;
26656;SDS011;14279;50.010;8.260;2023-02-28T00:58:05;3.43;;;2.57;;
26656;SDS011;14279;50.010;8.260;2023-02-28T01:00:30;3.43;;;3.13;;
26656;SDS011;14279;50.010;8.260;2023-02-28T01:02:56;2.80;;;2.60;;
26656;SDS011;14279;50.010;8.260;2023-02-28T01:05:21;3.40;;;3.10;;
26656;SDS011;14279;50.010;8.260;2023-02-28T01:07:46;3.80;;;3.23;;
26656;SDS011;14279;50.010;8.260;2023-02-28T01:10:11;5.03;;;2.40;;
26656;SDS011;14279;50.010;8.260;2023-02-28T01:12:37;3.30;;;3.10;;
26656;SDS011;14279;50.010;8.260;2023-02-28T01:15:03;4.50;;;2.63;;
26656;SDS011;14279;50.010;8.260;2023-02-28T01:17:29;3.40;;;3.10;;
26656;SDS011;14279;50.010;8.260;2023-02-28T01:19:54;3.37;;;3.03;;
26656;SDS011;14279;50.010;8.260;2023-02-28T01:22:20;4.73;;;3.10;;
26656;SDS011;14279;50.010;8.260;2023-02-28T01:24:46;3.63;;;3.33;;
26656;SDS011;14279;50.010;8.260;2023-02-28T01:27:11;4.33;;;2.90;;
26656;SDS011;14279;50.010;8.260;2023-02-28T01:29:36;3.60;;;3.30;;
26656;SDS011;14279;50.010;8.260;2023-02-28T01:32:01;8.13;;;3.80;;
26656;SDS011;14279;50.010;8.260;2023-02-28T01:34:27;5.60;;;3.50;;
26656;SDS011;14279;50.010;8.260;2023-02-28T01:36:52;5.07;;;3.70;;
26656;SDS011;14279;50.010;8.260;2023-02-28T01:39:17;4.40;;;3.33;;
26656;SDS011;14279;50.010;8.260;2023-02-28T01:41:42;4.60;;;3.20;;
26656;SDS011;14279;50.010;8.260;2023-02-28T01:47:11;3.73;;;3.30;;
26656;SDS011;14279;50.010;8.260;2023-02-28T01:49:37;3.83;;;3.43;;
26656;SDS011;14279;50.010;8.260;2023-02-28T01:52:02;3.33;;;3.13;;
26656;SDS011;14279;50.010;8.260;2023-02-28T01:54:29;4.97;;;3.23;;
26656;SDS011;14279;50.010;8.260;2023-02-28T01:57:03;4.53;;;3.43;;
26656;SDS011;14279;50.010;8.260;2023-02-28T01:59:37;5.03;;;4.53;;
26656;SDS011;14279;50.010;8.260;2023-02-28T02:02:16;4.67;;;3.60;;
26656;SDS011;14279;50.010;8.260;2023-02-28T02:07:23;4.77;;;3.50;;
26656;SDS011;14279;50.010;8.260;2023-02-28T02:09:58;4.73;;;4.23;;
26656;SDS011;14279;50.010;8.260;2023-02-28T02:13:12;4.90;;;3.30;;
26656;SDS011;14279;50.010;8.260;2023-02-28T02:15:20;4.80;;;3.20;;
26656;SDS011;14279;50.010;8.260;2023-02-28T02:17:55;5.87;;;3.97;;
26656;SDS011;14279;50.010;8.260;2023-02-28T02:20:32;4.23;;;3.83;;
26656;SDS011;14279;50.010;8.260;2023-02-28T02:25:53;4.30;;;3.90;;
26656;SDS011;14279;50.010;8.260;2023-02-28T02:33:48;4.63;;;3.87;;
26656;SDS011;14279;50.010;8.260;2023-02-28T02:36:36;7.07;;;3.90;;
26656;SDS011;14279;50.010;8.260;2023-02-28T02:39:18;4.13;;;3.33;;
26656;SDS011;14279;50.010;8.260;2023-02-28T02:41:51;4.47;;;3.70;;
26656;SDS011;14279;50.010;8.260;2023-02-28T02:44:20;4.80;;;3.80;;
26656;SDS011;14279;50.010;8.260;2023-02-28T02:46:50;4.13;;;3.73;;
26656;SDS011;14279;50.010;8.260;2023-02-28T02:49:22;4.10;;;3.70;;
26656;SDS011;14279;50.010;8.260;2023-02-28T02:51:51;5.00;;;3.57;;
26656;SDS011;14279;50.010;8.260;2023-02-28T02:54:28;3.90;;;3.60;;
26656;SDS011;14279;50.010;8.260;2023-02-28T02:56:58;3.23;;;3.03;;
26656;SDS011;14279;50.010;8.260;2023-02-28T02:59:28;4.70;;;4.00;;
26656;SDS011;14279;50.010;8.260;2023-02-28T03:01:55;5.63;;;3.70;;
26656;SDS011;14279;50.010;8.260;2023-02-28T03:04:24;4.20;;;3.73;;
26656;SDS011;14279;50.010;8.260;2023-02-28T03:06:55;4.40;;;4.00;;
26656;SDS011;14279;50.010;8.260;2023-02-28T03:09:24;3.67;;;3.37;;
26656;SDS011;14279;50.010;8.260;2023-02-28T03:11:51;3.37;;;3.07;;
26656;SDS011;14279;50.010;8.260;2023-02-28T03:22:45;3.80;;;3.50;;
26656;SDS011;14279;50.010;8.260;2023-02-28T03:30:38;3.57;;;3.27;;
26656;SDS011;14279;50.010;8.260;2023-02-28T03:33:21;5.30;;;3.17;;
26656;SDS011;14279;50.010;8.260;2023-02-28T03:35:57;4.40;;;2.90;;
26656;SDS011;14279;50.010;8.260;2023-02-28T03:38:35;3.10;;;2.90;;
26656;SDS011;14279;50.010;8.260;2023-02-28T03:41:17;3.27;;;2.97;;
26656;SDS011;14279;50.010;8.260;2023-02-28T03:43:50;3.40;;;3.10;;
26656;SDS011;14279;50.010;8.260;2023-02-28T03:46:40;3.00;;;2.80;;
26656;SDS011;14279;50.010;8.260;2023-02-28T03:49:15;3.30;;;3.10;;
26656;SDS011;14279;50.010;8.260;2023-02-28T03:51:45;2.90;;;2.70;;
26656;SDS011;14279;50.010;8.260;2023-02-28T03:54:13;4.13;;;3.33;;
26656;SDS011;14279;50.010;8.260;2023-02-28T03:56:48;4.93;;;3.03;;
26656;SDS011;14279;50.010;8.260;2023-02-28T03:59:21;3.20;;;2.90;;
26656;SDS011;14279;50.010;8.260;2023-02-28T04:01:51;5.53;;;3.57;;
26656;SDS011;14279;50.010;8.260;2023-02-28T04:04:16;6.30;;;3.27;;
26656;SDS011;14279;50.010;8.260;2023-02-28T04:06:43;4.10;;;3.40;;
26656;SDS011;14279;50.010;8.260;2023-02-28T04:09:10;3.20;;;3.00;;
26656;SDS011;14279;50.010;8.260;2023-02-28T04:11:38;3.77;;;3.20;;
26656;SDS011;14279;50.010;8.260;2023-02-28T04:14:06;3.03;;;2.73;;
26656;SDS011;14279;50.010;8.260;2023-02-28T04:16:33;2.97;;;2.77;;
26656;SDS011;14279;50.010;8.260;2023-02-28T04:18:59;3.53;;;2.77;;
26656;SDS011;14279;50.010;8.260;2023-02-28T04:21:32;3.47;;;2.83;;
26656;SDS011;14279;50.010;8.260;2023-02-28T04:23:59;3.23;;;3.03;;
26656;SDS011;14279;50.010;8.260;2023-02-28T04:26:32;3.80;;;3.40;;
26656;SDS011;14279;50.010;8.260;2023-02-28T04:29:00;3.13;;;2.83;;
26656;SDS011;14279;50.010;8.260;2023-02-28T04:31:26;2.73;;;2.53;;
26656;SDS011;14279;50.010;8.260;2023-02-28T04:33:51;2.33;;;2.20;;
26656;SDS011;14279;50.010;8.260;2023-02-28T04:36:17;4.17;;;2.73;;
26656;SDS011;14279;50.010;8.260;2023-02-28T04:38:43;2.93;;;2.60;;
26656;SDS011;14279;50.010;8.260;2023-02-28T04:41:10;7.13;;;3.10;;
26656;SDS011;14279;50.010;8.260;2023-02-28T04:43:35;3.60;;;3.30;;
26656;SDS011;14279;50.010;8.260;2023-02-28T04:46:01;3.10;;;2.60;;
26656;SDS011;14279;50.010;8.260;2023-02-28T04:48:29;3.03;;;2.73;;
26656;SDS011;14279;50.010;8.260;2023-02-28T04:50:59;2.90;;;2.70;;
26656;SDS011;14279;50.010;8.260;2023-02-28T04:53:25;2.80;;;2.60;;
26656;SDS011;14279;50.010;8.260;2023-02-28T04:55:50;3.57;;;2.63;;
26656;SDS011;14279;50.010;8.260;2023-02-28T04:58:16;5.87;;;3.43;;
26656;SDS011;14279;50.010;8.260;2023-02-28T05:00:41;2.93;;;2.63;;
26656;SDS011;14279;50.010;8.260;2023-02-28T05:03:06;3.10;;;2.87;;
26656;SDS011;14279;50.010;8.260;2023-02-28T05:05:32;3.17;;;2.97;;
26656;SDS011;14279;50.010;8.260;2023-02-28T05:07:57;2.50;;;2.30;;
26656;SDS011;14279;50.010;8.260;2023-02-28T05:10:23;2.83;;;2.63;;
26656;SDS011;14279;50.010;8.260;2023-02-28T05:12:48;2.60;;;2.40;;
26656;SDS011;14279;50.010;8.260;2023-02-28T05:15:14;2.77;;;2.57;;
26656;SDS011;14279;50.010;8.260;2023-02-28T05:17:40;3.30;;;2.93;;
26656;SDS011;14279;50.010;8.260;2023-02-28T05:20:06;2.73;;;2.53;;
26656;SDS011;14279;50.010;8.260;2023-02-28T05:22:33;2.63;;;2.43;;
26656;SDS011;14279;50.010;8.260;2023-02-28T05:24:58;4.03;;;2.57;;
26656;SDS011;14279;50.010;8.260;2023-02-28T05:27:24;4.10;;;2.80;;
26656;SDS011;14279;50.010;8.260;2023-02-28T05:29:49;5.20;;;2.97;;
26656;SDS011;14279;50.010;8.260;2023-02-28T05:32:15;3.33;;;2.90;;
26656;SDS011;14279;50.010;8.260;2023-02-28T05:34:40;2.87;;;2.67;;
26656;SDS011;14279;50.010;8.260;2023-02-28T05:37:06;2.40;;;2.30;;
26656;SDS011;14279;50.010;8.260;2023-02-28T05:39:35;4.40;;;3.03;;
26656;SDS011;14279;50.010;8.260;2023-02-28T05:42:01;4.17;;;2.60;;
26656;SDS011;14279;50.010;8.260;2023-02-28T05:44:26;6.93;;;3.20;;
26656;SDS011;14279;50.010;8.260;2023-02-28T05:46:51;3.03;;;2.77;;
26656;SDS011;14279;50.010;8.260;2023-02-28T05:49:16;3.20;;;2.90;;
26656;SDS011;14279;50.010;8.260;2023-02-28T05:51:41;2.70;;;2.50;;
26656;SDS011;14279;50.010;8.260;2023-02-28T05:54:07;2.77;;;2.57;;
26656;SDS011;14279;50.010;8.260;2023-02-28T05:56:32;3.40;;;3.10;;
26656;SDS011;14279;50.010;8.260;2023-02-28T05:59:00;3.03;;;2.70;;
26656;SDS011;14279;50.010;8.260;2023-02-28T06:04:20;2.60;;;2.40;;
26656;SDS011;14279;50.010;8.260;2023-02-28T06:06:49;3.53;;;2.90;;
26656;SDS011;14279;50.010;8.260;2023-02-28T06:09:15;3.27;;;2.97;;
26656;SDS011;14279;50.010;8.260;2023-02-28T06:11:41;3.70;;;2.83;;
26656;SDS011;14279;50.010;8.260;2023-02-28T06:14:07;3.00;;;2.70;;
26656;SDS011;14279;50.010;8.260;2023-02-28T06:16:33;5.83;;;3.03;;
26656;SDS011;14279;50.010;8.260;2023-02-28T06:19:00;3.37;;;3.07;;
26656;SDS011;14279;50.010;8.260;2023-02-28T06:21:27;2.47;;;2.33;;
26656;SDS011;14279;50.010;8.260;2023-02-28T06:23:53;2.57;;;2.43;;
26656;SDS011;14279;50.010;8.260;2023-02-28T06:26:19;2.70;;;2.50;;
26656;SDS011;14279;50.010;8.260;2023-02-28T06:28:45;5.20;;;3.27;;
26656;SDS011;14279;50.010;8.260;2023-02-28T06:31:12;4.27;;;3.10;;
26656;SDS011;14279;50.010;8.260;2023-02-28T06:33:39;4.57;;;3.00;;
26656;SDS011;14279;50.010;8.260;2023-02-28T06:36:06;3.23;;;3.00;;
26656;SDS011;14279;50.010;8.260;2023-02-28T06:38:32;3.57;;;2.43;;
26656;SDS011;14279;50.010;8.260;2023-02-28T06:40:59;5.10;;;3.07;;
26656;SDS011;14279;50.010;8.260;2023-02-28T06:43:25;3.17;;;2.87;;
26656;SDS011;14279;50.010;8.260;2023-02-28T06:45:54;4.93;;;3.10;;
26656;SDS011;14279;50.010;8.260;2023-02-28T06:48:20;9.70;;;2.80;;
26656;SDS011;14279;50.010;8.260;2023-02-28T06:50:45;6.27;;;3.03;;
26656;SDS011;14279;50.010;8.260;2023-02-28T06:53:11;2.20;;;1.70;;
26656;SDS011;14279;50.010;8.260;2023-02-28T06:55:37;3.70;;;2.70;;
26656;SDS011;14279;50.010;8.260;2023-02-28T06:58:03;5.80;;;2.93;;
26656;SDS011;14279;50.010;8.260;2023-02-28T07:00:43;2.87;;;2.60;;
26656;SDS011;14279;50.010;8.260;2023-02-28T07:03:09;2.87;;;2.67;;
26656;SDS011;14279;50.010;8.260;2023-02-28T07:05:36;3.13;;;2.53;;
26656;SDS011;14279;50.010;8.260;2023-02-28T07:08:02;7.67;;;3.07;;
26656;SDS011;14279;50.010;8.260;2023-02-28T07:10:29;4.50;;;2.57;;
26656;SDS011;14279;50.010;8.260;2023-02-28T07:12:54;2.57;;;2.37;;
26656;SDS011;14279;50.010;8.260;2023-02-28T07:15:19;3.00;;;2.80;;
26656;SDS011;14279;50.010;8.260;2023-02-28T07:17:45;7.60;;;2.67;;
26656;SDS011;14279;50.010;8.260;2023-02-28T07:20:10;3.33;;;2.80;;
26656;SDS011;14279;50.010;8.260;2023-02-28T07:22:36;4.23;;;3.30;;
26656;SDS011;14279;50.010;8.260;2023-02-28T07:25:03;3.50;;;3.00;;
26656;SDS011;14279;50.010;8.260;2023-02-28T07:27:30;3.80;;;2.63;;
26656;SDS011;14279;50.010;8.260;2023-02-28T07:29:55;5.40;;;2.90;;
26656;SDS011;14279;50.010;8.260;2023-02-28T07:32:20;3.27;;;2.90;;
26656;SDS011;14279;50.010;8.260;2023-02-28T07:34:46;3.30;;;3.00;;
26656;SDS011;14279;50.010;8.260;2023-02-28T07:37:11;4.00;;;2.80;;
26656;SDS011;14279;50.010;8.260;2023-02-28T07:39:37;4.07;;;2.90;;
26656;SDS011;14279;50.010;8.260;2023-02-28T07:42:05;3.80;;;3.50;;
26656;SDS011;14279;50.010;8.260;2023-02-28T07:44:34;3.10;;;2.90;;
26656;SDS011;14279;50.010;8.260;2023-02-28T07:46:59;2.90;;;2.70;;
26656;SDS011;14279;50.010;8.260;2023-02-28T07:49:24;3.70;;;3.10;;
26656;SDS011;14279;50.010;8.260;2023-02-28T07:51:49;3.30;;;3.00;;
26656;SDS011;14279;50.010;8.260;2023-02-28T07:54:15;4.50;;;3.40;;
26656;SDS011;14279;50.010;8.260;2023-02-28T07:56:40;3.60;;;2.90;;
26656;SDS011;14279;50.010;8.260;2023-02-28T07:59:06;4.83;;;3.17;;
26656;SDS011;14279;50.010;8.260;2023-02-28T08:01:31;3.63;;;3.00;;
26656;SDS011;14279;50.010;8.260;2023-02-28T08:03:56;5.03;;;3.10;;
26656;SDS011;14279;50.010;8.260;2023-02-28T08:06:22;3.27;;;2.97;;
26656;SDS011;14279;50.010;8.260;2023-02-28T08:08:48;3.17;;;2.87;;
26656;SDS011;14279;50.010;8.260;2023-02-28T08:11:14;4.93;;;3.33;;
26656;SDS011;14279;50.010;8.260;2023-02-28T08:13:40;3.53;;;3.00;;
26656;SDS011;14279;50.010;8.260;2023-02-28T08:16:07;3.97;;;3.27;;
26656;SDS011;14279;50.010;8.260;2023-02-28T08:18:33;5.90;;;2.90;;
26656;SDS011;14279;50.010;8.260;2023-02-28T08:20:58;4.70;;;3.40;;
26656;SDS011;14279;50.010;8.260;2023-02-28T08:23:24;4.00;;;3.10;;
26656;SDS011;14279;50.010;8.260;2023-02-28T08:25:53;4.33;;;3.30;;
26656;SDS011;14279;50.010;8.260;2023-02-28T08:28:21;5.93;;;4.00;;
26656;SDS011;14279;50.010;8.260;2023-02-28T08:30:47;3.00;;;2.80;;
26656;SDS011;14279;50.010;8.260;2023-02-28T08:33:12;3.93;;;3.53;;
26656;SDS011;14279;50.010;8.260;2023-02-28T08:35:37;3.90;;;3.37;;
26656;SDS011;14279;50.010;8.260;2023-02-28T08:38:03;3.50;;;3.20;;
26656;SDS011;14279;50.010;8.260;2023-02-28T08:40:28;3.53;;;3.20;;
26656;SDS011;14279;50.010;8.260;2023-02-28T08:42:53;4.00;;;3.03;;
26656;SDS011;14279;50.010;8.260;2023-02-28T08:45:18;6.00;;;3.90;;
26656;SDS011;14279;50.010;8.260;2023-02-28T08:47:44;6.13;;;3.70;;
26656;SDS011;14279;50.010;8.260;2023-02-28T08:50:09;5.20;;;4.37;;
26656;SDS011;14279;50.010;8.260;2023-02-28T08:52:34;10.47;;;4.23;;
26656;SDS011;14279;50.010;8.260;2023-02-28T08:55:00;5.33;;;3.20;;
26656;SDS011;14279;50.010;8.260;2023-02-28T08:57:25;4.73;;;3.30;;
26656;SDS011;14279;50.010;8.260;2023-02-28T08:59:51;4.27;;;3.87;;
26656;SDS011;14279;50.010;8.260;2023-02-28T09:02:17;6.70;;;3.63;;
26656;SDS011;14279;50.010;8.260;2023-02-28T09:04:42;10.57;;;3.70;;
26656;SDS011;14279;50.010;8.260;2023-02-28T09:07:10;4.13;;;3.73;;
26656;SDS011;14279;50.010;8.260;2023-02-28T09:09:35;5.00;;;3.27;;
26656;SDS011;14279;50.010;8.260;2023-02-28T09:12:01;4.53;;;4.10;;
26656;SDS011;14279;50.010;8.260;2023-02-28T09:14:26;3.40;;;3.03;;
26656;SDS011;14279;50.010;8.260;2023-02-28T09:16:52;5.70;;;3.00;;
26656;SDS011;14279;50.010;8.260;2023-02-28T09:19:17;5.20;;;4.00;;
26656;SDS011;14279;50.010;8.260;2023-02-28T09:21:42;4.33;;;3.93;;
26656;SDS011;14279;50.010;8.260;2023-02-28T09:24:07;4.30;;;3.50;;
26656;SDS011;14279;50.010;8.260;2023-02-28T09:26:33;5.77;;;3.80;;
26656;SDS011;14279;50.010;8.260;2023-02-28T09:28:59;4.37;;;3.73;;
26656;SDS011;14279;50.010;8.260;2023-02-28T09:31:25;3.07;;;2.87;;
26656;SDS011;14279;50.010;8.260;2023-02-28T09:33:53;6.23;;;3.80;;
26656;SDS011;14279;50.010;8.260;2023-02-28T09:36:21;6.33;;;3.30;;
26656;SDS011;14279;50.010;8.260;2023-02-28T09:38:47;6.70;;;3.47;;
26656;SDS011;14279;50.010;8.260;2023-02-28T09:41:15;4.83;;;3.50;;
26656;SDS011;14279;50.010;8.260;2023-02-28T09:43:45;3.60;;;3.30;;
26656;SDS011;14279;50.010;8.260;2023-02-28T09:46:18;3.80;;;3.47;;
26656;SDS011;14279;50.010;8.260;2023-02-28T09:48:52;5.17;;;2.77;;
26656;SDS011;14279;50.010;8.260;2023-02-28T09:51:34;9.30;;;4.53;;
26656;SDS011;14279;50.010;8.260;2023-02-28T09:54:14;6.40;;;3.40;;
26656;SDS011;14279;50.010;8.260;2023-02-28T09:56:44;3.60;;;3.30;;
26656;SDS011;14279;50.010;8.260;2023-02-28T10:02:17;4.10;;;3.67;;
26656;SDS011;14279;50.010;8.260;2023-02-28T10:05:08;4.20;;;3.40;;
26656;SDS011;14279;50.010;8.260;2023-02-28T10:07:50;11.80;;;3.13;;
26656;SDS011;14279;50.010;8.260;2023-02-28T10:10:30;3.50;;;3.20;;
26656;SDS011;14279;50.010;8.260;2023-02-28T10:13:04;3.40;;;3.10;;
26656;SDS011;14279;50.010;8.260;2023-02-28T10:15:37;3.90;;;3.60;;
26656;SDS011;14279;50.010;8.260;2023-02-28T10:18:04;5.27;;;3.70;;
26656;SDS011;14279;50.010;8.260;2023-02-28T10:20:35;3.20;;;2.90;;
26656;SDS011;14279;50.010;8.260;2023-02-28T10:23:07;3.70;;;3.10;;
26656;SDS011;14279;50.010;8.260;2023-02-28T10:25:35;4.10;;;3.70;;
26656;SDS011;14279;50.010;8.260;2023-02-28T10:28:10;3.40;;;3.10;;
26656;SDS011;14279;50.010;8.260;2023-02-28T10:30:40;4.63;;;3.83;;
26656;SDS011;14279;50.010;8.260;2023-02-28T10:33:14;3.40;;;3.10;;
26656;SDS011;14279;50.010;8.260;2023-02-28T10:35:42;6.40;;;3.80;;
26656;SDS011;14279;50.010;8.260;2023-02-28T10:38:11;4.07;;;3.67;;
26656;SDS011;14279;50.010;8.260;2023-02-28T10:40:41;4.07;;;3.77;;
26656;SDS011;14279;50.010;8.260;2023-02-28T10:45:37;4.40;;;3.90;;
26656;SDS011;14279;50.010;8.260;2023-02-28T10:53:16;6.13;;;3.43;;
26656;SDS011;14279;50.010;8.260;2023-02-28T10:58:52;3.30;;;2.97;;
26656;SDS011;14279;50.010;8.260;2023-02-28T11:01:42;4.70;;;3.30;;
26656;SDS011;14279;50.010;8.260;2023-02-28T11:06:47;5.07;;;3.70;;
26656;SDS011;14279;50.010;8.260;2023-02-28T11:09:32;4.67;;;3.17;;
26656;SDS011;14279;50.010;8.260;2023-02-28T11:11:59;5.90;;;3.83;;
26656;SDS011;14279;50.010;8.260;2023-02-28T11:14:30;7.10;;;3.80;;
26656;SDS011;14279;50.010;8.260;2023-02-28T11:17:03;4.00;;;3.60;;
26656;SDS011;14279;50.010;8.260;2023-02-28T11:19:40;4.60;;;4.20;;
26656;SDS011;14279;50.010;8.260;2023-02-28T11:22:15;6.23;;;4.00;;
26656;SDS011;14279;50.010;8.260;2023-02-28T11:24:45;4.10;;;3.70;;
26656;SDS011;14279;50.010;8.260;2023-02-28T11:29:55;4.33;;;3.67;;
26656;SDS011;14279;50.010;8.260;2023-02-28T11:32:22;5.83;;;3.60;;
26656;SDS011;14279;50.010;8.260;2023-02-28T11:35:34;12.00;;;3.60;;
26656;SDS011;14279;50.010;8.260;2023-02-28T11:37:34;6.73;;;4.07;;
26656;SDS011;14279;50.010;8.260;2023-02-28T11:40:00;8.00;;;3.93;;
26656;SDS011;14279;50.010;8.260;2023-02-28T11:42:32;6.27;;;4.03;;
26656;SDS011;14279;50.010;8.260;2023-02-28T11:48:18;3.80;;;3.40;;
26656;SDS011;14279;50.010;8.260;2023-02-28T11:51:03;5.90;;;4.20;;
26656;SDS011;14279;50.010;8.260;2023-02-28T11:53:39;15.40;;;3.93;;
26656;SDS011;14279;50.010;8.260;2023-02-28T11:56:31;4.27;;;3.63;;
26656;SDS011;14279;50.010;8.260;2023-02-28T12:04:53;6.70;;;3.73;;
26656;SDS011;14279;50.010;8.260;2023-02-28T12:07:37;4.40;;;3.60;;
26656;SDS011;14279;50.010;8.260;2023-02-28T12:23:37;4.40;;;4.00;;
26656;SDS011;14279;50.010;8.260;2023-02-28T12:26:30;4.53;;;4.00;;
26656;SDS011;14279;50.010;8.260;2023-02-28T12:31:53;9.93;;;4.17;;
26656;SDS011;14279;50.010;8.260;2023-02-28T12:34:58;7.40;;;4.50;;
26656;SDS011;14279;50.010;8.260;2023-02-28T12:37:33;9.23;;;5.30;;
26656;SDS011;14279;50.010;8.260;2023-02-28T12:40:11;5.30;;;4.20;;
26656;SDS011;14279;50.010;8.260;2023-02-28T12:42:41;5.10;;;4.60;;
26656;SDS011;14279;50.010;8.260;2023-02-28T12:45:13;4.60;;;4.10;;
26656;SDS011;14279;50.010;8.260;2023-02-28T12:47:40;5.07;;;4.57;;
26656;SDS011;14279;50.010;8.260;2023-02-28T12:50:10;9.23;;;4.40;;
26656;SDS011;14279;50.010;8.260;2023-02-28T12:52:54;6.73;;;4.63;;
26656;SDS011;14279;50.010;8.260;2023-02-28T12:58:29;6.77;;;4.60;;
26656;SDS011;14279;50.010;8.260;2023-02-28T13:01:20;7.97;;;5.23;;
26656;SDS011;14279;50.010;8.260;2023-02-28T13:07:10;6.17;;;3.80;;
26656;SDS011;14279;50.010;8.260;2023-02-28T13:09:50;10.70;;;4.47;;
26656;SDS011;14279;50.010;8.260;2023-02-28T13:12:18;11.10;;;4.60;;
26656;SDS011;14279;50.010;8.260;2023-02-28T13:14:45;6.90;;;5.17;;
26656;SDS011;14279;50.010;8.260;2023-02-28T13:17:11;5.77;;;4.37;;
26656;SDS011;14279;50.010;8.260;2023-02-28T13:22:20;8.10;;;4.90;;
26656;SDS011;14279;50.010;8.260;2023-02-28T13:25:02;6.70;;;5.20;;
26656;SDS011;14279;50.010;8.260;2023-02-28T13:27:51;6.13;;;4.83;;
26656;SDS011;14279;50.010;8.260;2023-02-28T13:35:49;9.13;;;5.40;;
26656;SDS011;14279;50.010;8.260;2023-02-28T13:38:33;4.70;;;4.20;;
26656;SDS011;14279;50.010;8.260;2023-02-28T13:44:00;9.27;;;5.10;;
26656;SDS011;14279;50.010;8.260;2023-02-28T13:46:26;5.33;;;4.83;;
26656;SDS011;14279;50.010;8.260;2023-02-28T13:48:52;6.63;;;5.30;;
26656;SDS011;14279;50.010;8.260;2023-02-28T13:51:38;9.30;;;5.33;;
26656;SDS011;14279;50.010;8.260;2023-02-28T14:02:36;6.13;;;5.27;;
26656;SDS011;14279;50.010;8.260;2023-02-28T14:05:14;5.53;;;4.50;;
26656;SDS011;14279;50.010;8.260;2023-02-28T14:07:49;7.80;;;5.63;;
26656;SDS011;14279;50.010;8.260;2023-02-28T14:10:22;8.23;;;6.00;;
26656;SDS011;14279;50.010;8.260;2023-02-28T14:47:03;9.17;;;5.87;;
26656;SDS011;14279;50.010;8.260;2023-02-28T14:49:45;5.63;;;5.00;;
26656;SDS011;14279;50.010;8.260;2023-02-28T14:52:23;5.43;;;4.83;;
26656;SDS011;14279;50.010;8.260;2023-02-28T14:55:02;6.43;;;5.23;;
26656;SDS011;14279;50.010;8.260;2023-02-28T14:57:41;10.07;;;5.30;;
26656;SDS011;14279;50.010;8.260;2023-02-28T15:00:23;7.47;;;5.27;;
26656;SDS011;14279;50.010;8.260;2023-02-28T15:03:19;5.97;;;5.07;;
26656;SDS011;14279;50.010;8.260;2023-02-28T15:09:29;8.23;;;5.47;;
26656;SDS011;14279;50.010;8.260;2023-02-28T15:12:15;9.30;;;6.13;;
26656;SDS011;14279;50.010;8.260;2023-02-28T15:18:34;7.10;;;5.00;;
26656;SDS011;14279;50.010;8.260;2023-02-28T15:21:17;38.17;;;12.80;;
26656;SDS011;14279;50.010;8.260;2023-02-28T15:26:58;6.60;;;5.30;;
26656;SDS011;14279;50.010;8.260;2023-02-28T15:29:32;6.77;;;5.10;;
26656;SDS011;14279;50.010;8.260;2023-02-28T15:32:06;5.80;;;5.10;;
26656;SDS011;14279;50.010;8.260;2023-02-28T15:34:36;9.60;;;6.10;;
26656;SDS011;14279;50.010;8.260;2023-02-28T15:39:52;5.80;;;5.07;;
26656;SDS011;14279;50.010;8.260;2023-02-28T15:42:20;14.47;;;5.57;;
26656;SDS011;14279;50.010;8.260;2023-02-28T15:44:47;6.53;;;5.03;;
26656;SDS011;14279;50.010;8.260;2023-02-28T15:47:17;18.07;;;7.90;;
26656;SDS011;14279;50.010;8.260;2023-02-28T15:50:03;11.10;;;6.70;;
26656;SDS011;14279;50.010;8.260;2023-02-28T15:52:58;10.33;;;6.80;;
26656;SDS011;14279;50.010;8.260;2023-02-28T15:55:28;11.53;;;6.50;;
26656;SDS011;14279;50.010;8.260;2023-02-28T15:57:56;13.27;;;5.03;;
26656;SDS011;14279;50.010;8.260;2023-02-28T16:00:27;6.50;;;5.67;;
26656;SDS011;14279;50.010;8.260;2023-02-28T16:02:54;6.77;;;5.20;;
26656;SDS011;14279;50.010;8.260;2023-02-28T16:07:53;7.27;;;5.60;;
26656;SDS011;14279;50.010;8.260;2023-02-28T16:10:21;10.83;;;5.13;;
26656;SDS011;14279;50.010;8.260;2023-02-28T16:12:51;6.80;;;5.20;;
26656;SDS011;14279;50.010;8.260;2023-02-28T16:15:19;6.10;;;5.50;;
26656;SDS011;14279;50.010;8.260;2023-02-28T16:17:45;8.07;;;5.77;;
26656;SDS011;14279;50.010;8.260;2023-02-28T16:20:19;6.07;;;4.07;;
26656;SDS011;14279;50.010;8.260;2023-02-28T16:22:46;10.37;;;6.07;;
26656;SDS011;14279;50.010;8.260;2023-02-28T16:25:26;8.37;;;5.23;;
26656;SDS011;14279;50.010;8.260;2023-02-28T16:28:21;9.23;;;6.43;;
26656;SDS011;14279;50.010;8.260;2023-02-28T16:30:59;5.80;;;4.97;;
26656;SDS011;14279;50.010;8.260;2023-02-28T16:33:45;9.27;;;5.23;;
26656;SDS011;14279;50.010;8.260;2023-02-28T16:36:31;5.33;;;4.50;;
26656;SDS011;14279;50.010;8.260;2023-02-28T16:39:12;7.83;;;5.30;;
26656;SDS011;14279;50.010;8.260;2023-02-28T16:42:36;8.10;;;4.90;;
26656;SDS011;14279;50.010;8.260;2023-02-28T16:45:26;10.30;;;5.87;;
26656;SDS011;14279;50.010;8.260;2023-02-28T16:48:03;6.57;;;4.97;;
26656;SDS011;14279;50.010;8.260;2023-02-28T16:50:47;8.30;;;4.80;;
26656;SDS011;14279;50.010;8.260;2023-02-28T16:53:19;10.20;;;5.80;;
26656;SDS011;14279;50.010;8.260;2023-02-28T16:55:47;6.63;;;4.97;;
26656;SDS011;14279;50.010;8.260;2023-02-28T16:58:15;8.50;;;5.57;;
26656;SDS011;14279;50.010;8.260;2023-02-28T17:01:02;6.40;;;5.47;;
26656;SDS011;14279;50.010;8.260;2023-02-28T17:36:30;6.70;;;5.60;;
26656;SDS011;14279;50.010;8.260;2023-02-28T17:42:16;10.67;;;6.03;;
26656;SDS011;14279;50.010;8.260;2023-02-28T17:44:48;6.00;;;5.40;;
26656;SDS011;14279;50.010;8.260;2023-02-28T17:47:13;10.40;;;5.80;;
26656;SDS011;14279;50.010;8.260;2023-02-28T17:53:09;6.87;;;5.40;;
26656;SDS011;14279;50.010;8.260;2023-02-28T17:55:47;8.93;;;5.93;;
26656;SDS011;14279;50.010;8.260;2023-02-28T18:00:50;8.63;;;5.10;;
26656;SDS011;14279;50.010;8.260;2023-02-28T18:09:29;8.67;;;6.07;;
26656;SDS011;14279;50.010;8.260;2023-02-28T18:11:55;14.20;;;5.83;;
26656;SDS011;14279;50.010;8.260;2023-02-28T18:14:23;10.10;;;5.07;;
26656;SDS011;14279;50.010;8.260;2023-02-28T18:16:52;6.03;;;5.30;;
26656;SDS011;14279;50.010;8.260;2023-02-28T18:19:19;7.70;;;5.70;;
26656;SDS011;14279;50.010;8.260;2023-02-28T18:21:48;8.40;;;5.97;;
26656;SDS011;14279;50.010;8.260;2023-02-28T18:24:52;8.20;;;5.90;;
26656;SDS011;14279;50.010;8.260;2023-02-28T18:27:23;9.83;;;5.90;;